Terminal Aerodrome Forecast
Issued by NWS

Home | Current Version | Previous Version | Text Only | Print | Product List | Glossary On
Versions: 1 2 3 4 5 6 7 8 9 10 11 12
000
FTUS45 KRIW 240500
TAFLND
TAF
KLND 240539Z 2406/2506 VRB06KT P6SM SCT090
     FM241000 31010KT P6SM BKN090
     FM241600 31013G23KT P6SM SCT100
     FM242200 25007KT P6SM FEW100 SCT150=

USA.gov is the U.S. government's official web portal to all federal, state and local government web resources and services.